Time;durP1;ratioP1;P1;durP2;ratioP2;P2;SDS_P1;SDS_P2;PMS_P1;PMS_P2;Temp;Humidity;BMP_temperature;BMP_pressure;BME280_temperature;BME280_humidity;BME280_pressure;Samples;Min_cycle;Max_cycle;Signal;HPM_P1;HPM_P2
2023/01/21 00:01:43;;;;;;;89.50;44.20;;;;;;;-1.71;100.00;102472.44;5074543;28;20523;-51
2023/01/21 00:04:11;;;;;;;80.15;41.83;;;;;;;-1.72;100.00;102465.53;5074594;28;20576;-51
2023/01/21 00:06:39;;;;;;;78.75;40.10;;;;;;;-1.68;100.00;102472.47;5073321;28;20044;-52
2023/01/21 00:09:08;;;;;;;75.18;38.17;;;;;;;-1.72;100.00;102473.28;5069898;28;20052;-52
2023/01/21 00:11:36;;;;;;;69.45;34.45;;;;;;;-1.76;100.00;102474.09;5074730;28;20054;-48
2023/01/21 00:14:06;;;;;;;67.38;34.97;;;;;;;-1.71;100.00;102475.00;5074960;28;20048;-54
2023/01/21 00:16:34;;;;;;;57.95;30.25;;;;;;;-1.67;100.00;102465.59;5075157;28;20044;-49
2023/01/21 00:19:02;;;;;;;63.72;31.33;;;;;;;-1.74;100.00;102473.25;5074883;28;20040;-50
2023/01/21 00:21:30;;;;;;;61.67;29.80;;;;;;;-1.72;100.00;102471.56;5071582;28;20059;-50
2023/01/21 00:23:59;;;;;;;54.10;27.95;;;;;;;-1.78;100.00;102470.63;5071394;28;20552;-51
2023/01/21 00:26:27;;;;;;;59.38;27.70;;;;;;;-1.79;100.00;102480.06;5073862;28;20102;-49
2023/01/21 00:28:55;;;;;;;54.13;26.00;;;;;;;-1.81;100.00;102475.72;5074830;28;20053;-51
2023/01/21 00:31:24;;;;;;;53.70;26.80;;;;;;;-1.83;100.00;102473.13;5074563;28;20079;-48
2023/01/21 00:33:53;;;;;;;57.03;25.73;;;;;;;-1.83;100.00;102477.44;5072292;28;20496;-52
2023/01/21 00:36:23;;;;;;;50.67;24.15;;;;;;;-1.86;100.00;102483.44;5070654;28;20046;-51
2023/01/21 00:38:51;;;;;;;55.75;25.80;;;;;;;-1.83;100.00;102488.63;5074311;28;20101;-50
2023/01/21 00:41:19;;;;;;;49.35;24.73;;;;;;;-1.84;100.00;102486.03;5073911;28;20054;-49
2023/01/21 00:43:48;;;;;;;51.35;25.13;;;;;;;-1.88;100.00;102488.56;5071178;28;20045;-50
2023/01/21 00:46:16;;;;;;;48.67;23.98;;;;;;;-1.85;100.00;102499.75;5071945;28;20488;-50
2023/01/21 00:48:46;;;;;;;48.30;24.08;;;;;;;-1.88;100.00;102510.94;5074309;28;20451;-51
2023/01/21 00:51:14;;;;;;;51.42;23.10;;;;;;;-1.89;100.00;102511.78;5074301;28;20056;-53
2023/01/21 00:53:42;;;;;;;46.20;22.55;;;;;;;-1.88;100.00;102519.53;5070839;28;20371;-51
2023/01/21 00:56:13;;;;;;;44.35;20.77;;;;;;;-1.89;100.00;102519.50;5071444;28;20096;-50
2023/01/21 00:58:43;;;;;;;42.55;21.08;;;;;;;-1.90;100.00;102528.94;5072161;28;20060;-50
2023/01/21 01:01:13;;;;;;;48.25;22.13;;;;;;;-1.88;100.00;102536.72;5069054;28;20053;-48
2023/01/21 01:03:41;;;;;;;44.45;21.65;;;;;;;-1.90;100.00;102538.41;5073606;28;20045;-48
2023/01/21 01:06:13;;;;;;;46.30;22.05;;;;;;;-1.91;100.00;102544.41;5074415;28;20356;-49
2023/01/21 01:08:42;;;;;;;41.72;21.85;;;;;;;-1.95;100.00;102556.41;5073927;28;20051;-48
2023/01/21 01:11:10;;;;;;;45.25;20.95;;;;;;;-1.96;100.00;102558.97;5073522;28;20500;-52
2023/01/21 01:13:39;;;;;;;42.83;21.88;;;;;;;-1.95;100.00;102561.56;5073103;28;20424;-53
2023/01/21 01:16:08;;;;;;;41.20;20.30;;;;;;;-1.99;100.00;102561.47;5073890;28;20040;-52
2023/01/21 01:18:37;;;;;;;52.72;21.73;;;;;;;-2.01;100.00;102576.94;5069451;28;20044;-52
2023/01/21 01:21:06;;;;;;;46.42;23.02;;;;;;;-2.05;100.00;102581.16;5070046;28;20059;-49
2023/01/21 01:23:36;;;;;;;45.30;20.95;;;;;;;-2.06;100.00;102584.59;5073595;28;20072;-51
2023/01/21 01:26:07;;;;;;;43.42;20.80;;;;;;;-1.97;100.00;102598.47;5073813;28;20074;-53
2023/01/21 01:28:38;;;;;;;42.15;19.90;;;;;;;-2.04;100.00;102592.38;5073350;28;20079;-54
2023/01/21 01:31:09;;;;;;;44.38;19.35;;;;;;;-2.01;100.00;102602.72;5068921;28;20052;-53
2023/01/21 01:33:37;;;;;;;41.33;20.45;;;;;;;-2.05;100.00;102609.53;5070574;28;20503;-52
2023/01/21 01:36:08;;;;;;;44.05;21.73;;;;;;;-2.04;100.00;102600.09;5071353;28;20049;-51
2023/01/21 01:38:37;;;;;;;40.90;21.13;;;;;;;-2.07;100.00;102607.78;5069594;28;20059;-53
2023/01/21 01:41:08;;;;;;;43.17;20.85;;;;;;;-2.08;100.00;102616.38;5071901;28;20044;-53
2023/01/21 01:43:53;;;;;;;45.30;21.33;;;;;;;-2.05;100.00;102608.66;5069659;28;20040;-51
2023/01/21 01:46:21;;;;;;;40.53;19.35;;;;;;;-2.07;100.00;102612.94;5070523;28;20078;-51
2023/01/21 01:48:54;;;;;;;40.28;19.73;;;;;;;-2.13;100.00;102620.56;5073197;28;20434;-49
2023/01/21 01:51:29;;;;;;;41.67;20.10;;;;;;;-2.18;100.00;102629.94;5070080;28;20060;-51
2023/01/21 01:53:59;;;;;;;42.75;19.63;;;;;;;-2.13;100.00;102629.16;5069865;28;20040;-50
2023/01/21 01:56:29;;;;;;;45.22;19.63;;;;;;;-2.20;100.00;102635.06;5073274;28;20161;-49
2023/01/21 01:58:58;;;;;;;44.92;20.15;;;;;;;-2.23;100.00;102633.31;5071485;28;20127;-49
2023/01/21 02:01:29;;;;;;;39.70;20.23;;;;;;;-2.23;100.00;102635.88;5068381;28;20045;-48
2023/01/21 02:03:59;;;;;;;45.20;20.17;;;;;;;-2.19;100.00;102636.81;5072178;28;20040;-50
2023/01/21 02:06:28;;;;;;;38.75;18.48;;;;;;;-2.23;100.00;102638.47;5072799;28;20048;-48
2023/01/21 02:08:56;;;;;;;38.83;18.88;;;;;;;-2.27;100.00;102646.13;5071959;28;20102;-49
2023/01/21 02:11:26;;;;;;;46.45;20.17;;;;;;;-2.28;100.00;102640.09;5072788;28;20105;-50
2023/01/21 02:13:57;;;;;;;43.70;20.35;;;;;;;-2.11;100.00;102647.25;5072085;28;20511;-49
2023/01/21 02:16:51;;;;;;;43.87;19.50;;;;;;;-2.28;100.00;102652.97;5068931;28;20929;-52
2023/01/21 02:20:03;;;;;;;45.95;19.15;;;;;;;-2.26;100.00;102650.47;5067542;28;20048;-48
2023/01/21 02:22:37;;;;;;;42.50;19.52;;;;;;;-2.29;100.00;102659.00;5072411;28;20060;-48
2023/01/21 02:26:10;;;;;;;41.65;19.33;;;;;;;-2.28;100.00;102658.13;5072556;28;20048;-50
2023/01/21 02:28:50;;;;;;;;;;;;;;;-2.31;100.00;102663.25;5073091;28;20048;-51
2023/01/21 02:31:33;;;;;;;47.90;20.30;;;;;;;-2.33;100.00;102666.63;5067966;28;19924;-51
2023/01/21 02:34:21;;;;;;;41.50;19.63;;;;;;;-2.40;100.00;102661.38;5069432;28;20102;-51
2023/01/21 02:36:59;;;;;;;41.20;19.60;;;;;;;-2.36;100.00;102669.16;5072396;28;20048;-49
2023/01/21 02:39:37;;;;;;;40.25;18.88;;;;;;;-2.40;100.00;102670.81;5072309;28;20087;-52
2023/01/21 02:42:07;;;;;;;46.78;21.98;;;;;;;-2.42;100.00;102668.22;5068889;28;20052;-51
2023/01/21 02:44:40;;;;;;;41.20;17.90;;;;;;;-2.43;100.00;102674.19;5069741;28;20055;-48
2023/01/21 02:47:15;;;;;;;;;;;;;;;-2.41;100.00;102667.38;5072685;28;20400;-51
2023/01/21 02:49:47;;;;;;;46.65;20.20;;;;;;;-2.45;100.00;102677.63;5071893;28;19921;-51
2023/01/21 02:52:19;;;;;;;43.17;20.10;;;;;;;-2.46;100.00;102678.44;5071865;28;20045;-47
2023/01/21 02:54:53;;;;;;;44.25;18.98;;;;;;;-2.42;100.00;102680.22;5071170;28;20521;-48
2023/01/21 02:57:35;;;;;;;46.45;19.08;;;;;;;-2.46;100.00;102694.75;5067726;28;20136;-50
2023/01/21 03:00:09;;;;;;;44.45;20.27;;;;;;;-2.48;100.00;102695.56;5071091;28;20044;-46
2023/01/21 03:03:26;;;;;;;46.08;19.55;;;;;;;-2.47;100.00;102694.75;5072057;28;20093;-48
2023/01/21 03:06:15;;;;;;;48.13;19.02;;;;;;;-2.50;100.00;102697.25;5070223;28;20192;-48
2023/01/21 03:08:50;;;;;;;46.17;20.13;;;;;;;-2.55;100.00;102703.19;5068852;28;20098;-47
2023/01/21 03:11:20;;;;;;;46.92;19.50;;;;;;;-2.50;100.00;102705.84;5071996;28;20045;-50
2023/01/21 03:16:57;;;;;;;43.60;18.33;;;;;;;-2.53;100.00;102699.78;5071758;28;20517;-48
2023/01/21 03:19:31;;;;;;;45.75;19.88;;;;;;;-2.58;100.00;102697.09;5071456;28;20527;-50
2023/01/21 03:22:05;;;;;;;47.85;20.75;;;;;;;-2.60;100.00;102706.53;5071827;28;20063;-51
2023/01/21 03:24:34;;;;;;;45.47;20.30;;;;;;;-2.60;100.00;102709.09;5071614;28;20068;-50
2023/01/21 03:27:05;;;;;;;44.85;19.73;;;;;;;-2.60;100.00;102716.84;5071886;28;20052;-52
2023/01/21 03:29:35;;;;;;;43.40;19.98;;;;;;;-2.61;100.00;102715.09;5072037;28;20367;-49
2023/01/21 03:32:08;;;;;;;43.38;20.45;;;;;;;-2.58;100.00;102713.47;5067703;28;20147;-52
2023/01/21 03:34:41;;;;;;;42.25;19.83;;;;;;;-2.61;100.00;102715.94;5068629;28;20080;-50
2023/01/21 03:37:17;;;;;;;47.38;19.90;;;;;;;-2.64;100.00;102723.63;5071683;28;20048;-52
2023/01/21 03:39:49;;;;;;;44.90;19.85;;;;;;;-2.63;100.00;102720.22;5071655;28;20160;-52
2023/01/21 03:42:18;;;;;;;42.33;20.10;;;;;;;-2.62;100.00;102724.53;5071601;28;20044;-51
2023/01/21 03:44:46;;;;;;;41.47;18.80;;;;;;;-2.61;100.00;102723.69;5071715;28;20037;-52
2023/01/21 03:47:22;;;;;;;43.13;19.70;;;;;;;-2.64;100.00;102728.78;5071875;28;20056;-52
2023/01/21 03:49:57;;;;;;;44.38;20.42;;;;;;;-2.65;100.00;102727.03;5071480;28;20383;-50
2023/01/21 03:52:27;;;;;;;49.10;19.90;;;;;;;-2.65;100.00;102739.06;5071379;28;20063;-53
2023/01/21 03:54:55;;;;;;;44.47;19.45;;;;;;;-2.58;100.00;102736.66;5070767;28;20494;-49
2023/01/21 03:57:23;;;;;;;41.95;18.50;;;;;;;-2.61;100.00;102738.28;5066056;28;20452;-47
2023/01/21 03:59:52;;;;;;;43.55;19.67;;;;;;;-2.66;100.00;102745.91;5069954;28;20044;-48
2023/01/21 04:02:20;;;;;;;43.78;19.50;;;;;;;-2.65;100.00;102746.78;5073127;28;20591;-50
2023/01/21 04:04:49;;;;;;;45.03;20.92;;;;;;;-2.68;100.00;102750.16;5074949;28;20032;-51
2023/01/21 04:07:17;;;;;;;41.58;18.45;;;;;;;-2.67;100.00;102753.59;5071195;28;20057;-47
2023/01/21 04:09:48;;;;;;;43.55;18.58;;;;;;;-2.69;100.00;102757.88;5072014;28;20045;-48
2023/01/21 04:12:17;;;;;;;47.10;18.95;;;;;;;-2.73;100.00;102749.19;5075152;28;20119;-49
2023/01/21 04:14:45;;;;;;;43.70;19.75;;;;;;;-2.73;100.00;102755.25;5074902;28;20068;-47
2023/01/21 04:17:13;;;;;;;46.75;20.02;;;;;;;-2.68;100.00;102757.03;5075081;28;20053;-50
2023/01/21 04:19:44;;;;;;;47.00;21.10;;;;;;;-2.75;100.00;102756.91;5074941;28;20500;-47
2023/01/21 04:22:13;;;;;;;48.85;20.98;;;;;;;-2.76;100.00;102754.28;5075054;28;20123;-47
2023/01/21 04:24:41;;;;;;;49.92;20.73;;;;;;;-2.77;100.00;102761.16;5074598;28;20059;-48
2023/01/21 04:27:10;;;;;;;45.53;20.00;;;;;;;-2.79;100.00;102767.13;5074807;28;20041;-49
2023/01/21 04:29:40;;;;;;;48.90;20.35;;;;;;;-2.78;100.00;102766.25;5073990;28;20203;-49
2023/01/21 04:32:09;;;;;;;41.22;19.15;;;;;;;-2.78;100.00;102777.44;5074478;28;20066;-47
2023/01/21 04:34:37;;;;;;;42.50;19.13;;;;;;;-2.79;100.00;102774.84;5070133;28;20059;-48
2023/01/21 04:37:05;;;;;;;45.70;19.15;;;;;;;-2.75;100.00;102766.34;5071866;28;20101;-49
2023/01/21 04:39:33;;;;;;;50.17;21.15;;;;;;;-2.78;100.00;102767.16;5074589;28;20048;-47
2023/01/21 04:42:01;;;;;;;45.55;20.83;;;;;;;-2.78;100.00;102763.69;5074338;28;20511;-52
2023/01/21 04:44:31;;;;;;;44.53;20.67;;;;;;;-2.72;100.00;102764.69;5074779;28;20484;-48
2023/01/21 04:46:59;;;;;;;47.63;20.80;;;;;;;-2.79;100.00;102767.13;5074397;28;20066;-48
2023/01/21 04:49:27;;;;;;;48.63;19.90;;;;;;;-2.81;100.00;102767.09;5074481;28;20559;-47
2023/01/21 04:51:55;;;;;;;49.72;21.92;;;;;;;-2.83;100.00;102773.03;5074467;28;20059;-48
2023/01/21 04:54:24;;;;;;;50.33;20.27;;;;;;;-2.82;100.00;102782.47;5071809;28;20072;-50
2023/01/21 04:56:52;;;;;;;43.92;20.33;;;;;;;-2.84;100.00;102781.59;5070698;28;20511;-50
2023/01/21 04:59:20;;;;;;;49.42;21.95;;;;;;;-2.85;100.00;102785.88;5073293;28;20102;-53
2023/01/21 05:01:50;;;;;;;49.08;20.88;;;;;;;-2.81;100.00;102786.81;5074156;28;20170;-50
2023/01/21 05:04:18;;;;;;;48.90;22.38;;;;;;;-2.79;100.00;102790.31;5074241;28;20072;-53
2023/01/21 05:06:46;;;;;;;47.83;21.58;;;;;;;-2.79;100.00;102792.88;5073954;28;20079;-48
2023/01/21 05:09:14;;;;;;;52.40;22.45;;;;;;;-2.78;100.00;102794.59;5072787;28;20139;-50
2023/01/21 05:11:42;;;;;;;50.90;22.20;;;;;;;-2.80;100.00;102799.72;5074061;28;20495;-47
2023/01/21 05:14:10;;;;;;;51.28;20.90;;;;;;;-2.80;100.00;102799.72;5073036;28;20044;-47
2023/01/21 05:16:38;;;;;;;46.92;21.38;;;;;;;-2.81;100.00;102800.56;5073874;28;20533;-48
2023/01/21 05:19:08;;;;;;;52.72;21.95;;;;;;;-2.82;100.00;102805.66;5073683;28;20054;-48
2023/01/21 05:21:36;;;;;;;51.40;21.05;;;;;;;-2.86;100.00;102803.84;5071069;28;20053;-49
2023/01/21 05:24:04;;;;;;;51.85;21.13;;;;;;;-2.85;100.00;102810.75;5070245;28;20410;-47
2023/01/21 05:26:32;;;;;;;51.90;21.83;;;;;;;-2.87;100.00;102807.28;5073373;28;20048;-50
2023/01/21 05:29:01;;;;;;;51.50;22.35;;;;;;;-2.89;100.00;102808.13;5073697;28;20052;-47
2023/01/21 05:31:29;;;;;;;50.47;22.10;;;;;;;-2.87;100.00;102813.28;5073874;28;20040;-48
2023/01/21 05:33:57;;;;;;;51.03;21.98;;;;;;;-2.86;100.00;102814.16;5072554;28;20083;-49
2023/01/21 05:36:27;;;;;;;52.08;21.67;;;;;;;-2.85;100.00;102816.78;5073154;28;20087;-47
2023/01/21 05:38:55;;;;;;;52.88;22.02;;;;;;;-2.86;100.00;102816.72;5072652;28;20048;-47
2023/01/21 05:41:23;;;;;;;52.55;22.33;;;;;;;-2.90;100.00;102824.41;5073235;28;20040;-49
2023/01/21 05:43:51;;;;;;;59.80;23.42;;;;;;;-2.84;100.00;102826.22;5073164;28;20106;-49
2023/01/21 05:46:19;;;;;;;52.25;22.33;;;;;;;-2.84;100.00;102822.81;5071868;28;20047;-52
2023/01/21 05:48:47;;;;;;;62.13;23.80;;;;;;;-2.83;100.00;102829.69;5073221;28;20044;-50
2023/01/21 05:51:15;;;;;;;60.55;25.15;;;;;;;-2.81;100.00;102835.75;5069591;28;20572;-49
2023/01/21 05:53:45;;;;;;;61.63;23.25;;;;;;;-2.83;100.00;102840.00;5069837;28;20056;-51
2023/01/21 05:56:13;;;;;;;63.08;25.48;;;;;;;-2.83;100.00;102840.00;5073212;28;20044;-51
2023/01/21 05:58:41;;;;;;;65.20;26.90;;;;;;;-2.81;100.00;102846.03;5072993;28;20515;-50
2023/01/21 06:01:09;;;;;;;67.15;25.45;;;;;;;-2.74;100.00;102850.50;5073177;28;20060;-50
2023/01/21 06:03:37;;;;;;;70.75;25.77;;;;;;;-2.77;100.00;102845.28;5072917;28;20076;-48
2023/01/21 06:06:06;;;;;;;63.45;25.65;;;;;;;-2.77;100.00;102856.47;5069000;28;20058;-50
2023/01/21 06:08:34;;;;;;;69.90;25.40;;;;;;;-2.71;100.00;102860.88;5069912;28;20048;-51
2023/01/21 06:11:04;;;;;;;67.57;25.92;;;;;;;-2.76;100.00;102859.91;5072942;28;20483;-51
2023/01/21 06:13:32;;;;;;;70.82;25.80;;;;;;;-2.75;100.00;102862.50;5072680;28;20476;-52
2023/01/21 06:16:00;;;;;;;75.53;26.83;;;;;;;-2.70;100.00;102862.59;5072734;28;20367;-51
2023/01/21 06:18:28;;;;;;;71.50;26.75;;;;;;;-2.68;100.00;102866.09;5072441;28;20048;-48
2023/01/21 06:20:59;;;;;;;76.93;27.83;;;;;;;-2.65;100.00;102875.59;5072627;28;20479;-51
2023/01/21 06:23:27;;;;;;;79.75;27.95;;;;;;;-2.72;100.00;102884.91;5072507;28;20571;-48
2023/01/21 06:25:59;;;;;;;74.03;25.45;;;;;;;-2.72;100.00;102884.91;5072201;28;20037;-47
2023/01/21 06:28:29;;;;;;;76.47;26.67;;;;;;;-2.66;100.00;102885.03;5070033;28;20468;-47
2023/01/21 06:30:57;;;;;;;82.43;27.83;;;;;;;-2.66;100.00;102892.75;5068387;28;20045;-49
2023/01/21 06:33:25;;;;;;;92.38;28.58;;;;;;;-2.64;100.00;102891.09;5071867;28;20440;-48
2023/01/21 06:35:54;;;;;;;85.88;27.05;;;;;;;-2.67;100.00;102898.75;5071250;28;20065;-48
2023/01/21 06:38:22;;;;;;;83.43;27.15;;;;;;;-2.68;100.00;102902.16;5067943;28;20440;-51
2023/01/21 06:40:50;;;;;;;82.43;26.33;;;;;;;-2.63;100.00;102902.25;5070674;28;20044;-50
2023/01/21 06:43:18;;;;;;;96.68;29.38;;;;;;;-2.61;100.00;102906.59;5072304;28;20055;-48
2023/01/21 06:45:47;;;;;;;81.15;26.88;;;;;;;-2.63;100.00;102913.44;5072195;28;20466;-50
2023/01/21 06:48:15;;;;;;;88.32;29.83;;;;;;;-2.60;100.00;102910.06;5067435;28;20045;-48
2023/01/21 06:50:43;;;;;;;80.13;27.70;;;;;;;-2.61;100.00;102916.91;5069963;28;20066;-51
2023/01/21 06:53:11;;;;;;;84.35;29.08;;;;;;;-2.58;100.00;102918.69;5072386;28;20055;-46
2023/01/21 06:55:40;;;;;;;78.18;26.08;;;;;;;-2.57;100.00;102920.44;5072107;28;20106;-48
2023/01/21 06:58:08;;;;;;;83.60;25.85;;;;;;;-2.56;100.00;102927.34;5068053;28;20049;-49
2023/01/21 07:00:36;;;;;;;81.75;26.40;;;;;;;-2.50;100.00;102927.47;5068529;28;20049;-49
2023/01/21 07:03:05;;;;;;;79.53;26.90;;;;;;;-2.47;100.00;102931.81;5070288;28;20036;-49
2023/01/21 07:05:33;;;;;;;73.05;24.38;;;;;;;-2.43;100.00;102929.34;5066860;28;20048;-50
2023/01/21 07:08:02;;;;;;;88.43;26.65;;;;;;;-2.41;100.00;102944.88;5070501;28;20076;-51
2023/01/21 07:10:30;;;;;;;86.60;26.35;;;;;;;-2.41;100.00;102937.13;5072084;28;20143;-52
2023/01/21 07:12:58;;;;;;;85.28;25.85;;;;;;;-2.38;100.00;102952.66;5072196;28;20059;-48
2023/01/21 07:15:29;;;;;;;69.93;25.05;;;;;;;-2.36;100.00;102950.09;5071927;28;20067;-48
2023/01/21 07:17:57;;;;;;;74.67;23.87;;;;;;;-2.29;100.00;102963.19;5072298;28;20381;-48
2023/01/21 07:20:27;;;;;;;86.65;27.20;;;;;;;-2.34;100.00;102962.19;5072030;28;20429;-48
2023/01/21 07:22:55;;;;;;;77.20;26.33;;;;;;;-2.24;100.00;102966.72;5071606;28;20037;-53
2023/01/21 07:25:23;;;;;;;75.18;25.45;;;;;;;-2.20;100.00;102970.22;5068261;28;20389;-51
2023/01/21 07:27:51;;;;;;;75.13;27.35;;;;;;;-2.25;100.00;102982.16;5069014;28;20051;-49
2023/01/21 07:30:20;;;;;;;71.15;25.50;;;;;;;-2.23;100.00;102985.66;5071928;28;20072;-49
2023/01/21 07:32:49;;;;;;;77.97;26.48;;;;;;;-2.20;100.00;102988.28;5069507;28;20049;-47
2023/01/21 07:35:17;;;;;;;75.75;26.85;;;;;;;-2.19;100.00;102990.03;5067122;28;20414;-50
2023/01/21 07:37:47;;;;;;;75.60;26.08;;;;;;;-2.19;100.00;102994.34;5074044;28;20045;-50
2023/01/21 07:40:15;;;;;;;74.55;26.60;;;;;;;-2.13;100.00;102994.44;5076087;28;20059;-51
2023/01/21 07:42:43;;;;;;;74.65;25.33;;;;;;;-2.13;100.00;103002.19;5075279;28;20060;-49
2023/01/21 07:45:11;;;;;;;81.40;26.80;;;;;;;-2.17;100.00;103003.81;5075085;28;20789;-50
2023/01/21 07:47:39;;;;;;;74.70;27.80;;;;;;;-2.13;100.00;103005.63;5075602;28;20391;-51
2023/01/21 07:50:09;;;;;;;76.60;26.50;;;;;;;-2.10;100.00;103015.13;5075472;28;20056;-51
2023/01/21 07:52:37;;;;;;;75.93;26.13;;;;;;;-2.02;100.00;103018.75;5075295;28;20565;-50
2023/01/21 07:55:08;;;;;;;66.65;25.50;;;;;;;-2.01;100.00;103011.91;5075355;28;20091;-49
2023/01/21 07:57:39;;;;;;;59.38;25.27;;;;;;;-2.02;100.00;103029.06;5075267;28;20123;-51
2023/01/21 08:00:08;;;;;;;61.60;26.67;;;;;;;-2.00;100.00;103024.84;5075349;28;20106;-51
2023/01/21 08:02:37;;;;;;;62.38;23.17;;;;;;;-2.00;100.00;103018.78;5071133;28;20040;-49
2023/01/21 08:05:05;;;;;;;62.00;23.95;;;;;;;-1.95;100.00;103028.41;5071378;28;20606;-50
2023/01/21 08:07:34;;;;;;;55.88;23.70;;;;;;;-1.95;100.00;103030.97;5075157;28;20518;-49
2023/01/21 08:10:02;;;;;;;58.55;23.48;;;;;;;-1.94;100.00;103037.00;5075521;28;20044;-52
2023/01/21 08:12:31;;;;;;;60.42;25.08;;;;;;;-1.92;100.00;103041.34;5075198;28;20098;-49
2023/01/21 08:14:59;;;;;;;62.20;24.52;;;;;;;-1.91;100.00;103043.09;5075031;28;20051;-51
2023/01/21 08:17:27;;;;;;;60.97;24.98;;;;;;;-1.84;100.00;103045.81;5075358;28;20044;-52
2023/01/21 08:19:56;;;;;;;62.85;26.58;;;;;;;-1.83;100.00;103057.88;5074795;28;20048;-50
2023/01/21 08:22:24;;;;;;;65.57;26.17;;;;;;;-1.80;100.00;103057.94;5075050;28;20094;-52
2023/01/21 08:24:52;;;;;;;63.47;25.90;;;;;;;-1.76;100.00;103067.47;5074315;28;20140;-49
2023/01/21 08:27:20;;;;;;;55.47;22.25;;;;;;;-1.68;100.00;103068.50;5074779;28;20041;-49
2023/01/21 08:29:50;;;;;;;63.40;24.92;;;;;;;-1.70;100.00;103067.63;5074978;28;20488;-50
2023/01/21 08:32:18;;;;;;;55.80;23.40;;;;;;;-1.72;100.00;103069.28;5069977;28;20110;-50
2023/01/21 08:34:46;;;;;;;56.00;23.52;;;;;;;-1.71;100.00;103076.19;5071295;28;20048;-51
2023/01/21 08:37:14;;;;;;;56.17;22.13;;;;;;;-1.61;100.00;103072.09;5074627;28;20040;-53
2023/01/21 08:39:42;;;;;;;54.20;21.90;;;;;;;-1.60;100.00;103068.69;5074737;28;20052;-52
2023/01/21 08:42:10;;;;;;;55.25;23.20;;;;;;;-1.58;100.00;103083.38;5074401;28;20144;-49
2023/01/21 08:44:39;;;;;;;60.28;24.15;;;;;;;-1.57;100.00;103079.06;5074191;28;20044;-51
2023/01/21 08:47:09;;;;;;;57.42;22.48;;;;;;;-1.53;100.00;103080.88;5074480;28;20049;-52
2023/01/21 08:49:37;;;;;;;56.25;21.27;;;;;;;-1.51;100.00;103080.91;5074464;28;20049;-49
2023/01/21 08:52:05;;;;;;;57.90;23.30;;;;;;;-1.46;100.00;103081.88;5072185;28;20049;-51
2023/01/21 08:54:33;;;;;;;51.65;21.30;;;;;;;-1.42;100.00;103079.41;5071007;28;20048;-47
2023/01/21 08:57:01;;;;;;;51.85;22.25;;;;;;;-1.38;100.00;103082.91;5073567;28;20037;-51
2023/01/21 08:59:29;;;;;;;55.15;20.90;;;;;;;-1.33;100.00;103088.19;5073273;28;20541;-52
2023/01/21 09:01:57;;;;;;;52.75;22.27;;;;;;;-1.30;100.00;103075.31;5070333;28;20068;-51
2023/01/21 09:04:27;;;;;;;54.03;23.13;;;;;;;-1.25;100.00;103082.31;5071880;28;20487;-52
2023/01/21 09:06:55;;;;;;;57.10;23.77;;;;;;;-1.24;100.00;103083.19;5074120;28;20114;-49
2023/01/21 09:09:23;;;;;;;52.97;21.23;;;;;;;-1.18;100.00;103088.47;5071206;28;20054;-49
2023/01/21 09:11:52;;;;;;;54.05;22.65;;;;;;;-1.14;100.00;103079.09;5070635;28;20041;-51
2023/01/21 09:14:23;;;;;;;54.20;22.45;;;;;;;-1.10;100.00;103080.88;5074135;28;20408;-51
2023/01/21 09:16:51;;;;;;;51.65;21.55;;;;;;;-1.08;100.00;103080.09;5074113;28;20051;-49
2023/01/21 09:19:19;;;;;;;51.33;22.67;;;;;;;-1.06;100.00;103080.97;5074188;28;20055;-50
2023/01/21 09:21:51;;;;;;;59.10;22.92;;;;;;;-1.05;100.00;103085.28;5073864;28;20171;-51
2023/01/21 09:24:19;;;;;;;53.03;21.87;;;;;;;-0.98;100.00;103078.53;5073683;28;20519;-52
2023/01/21 09:26:47;;;;;;;50.33;21.85;;;;;;;-0.94;100.00;103085.50;5073665;28;20483;-51
2023/01/21 09:29:15;;;;;;;51.45;21.90;;;;;;;-0.90;100.00;103084.72;5073884;28;20098;-50
2023/01/21 09:31:43;;;;;;;49.95;21.90;;;;;;;-0.88;100.00;103085.59;5071381;28;20079;-50
2023/01/21 09:34:12;;;;;;;55.30;22.30;;;;;;;-0.87;100.00;103099.41;5068214;28;20059;-53
2023/01/21 09:36:41;;;;;;;52.80;21.75;;;;;;;-0.86;100.00;103102.00;5073126;28;20094;-50
2023/01/21 09:39:10;;;;;;;48.60;20.23;;;;;;;-0.81;100.00;103101.22;5073555;28;20040;-49
2023/01/21 09:41:41;;;;;;;51.03;21.75;;;;;;;-0.76;100.00;103103.06;5073448;28;20094;-49
2023/01/21 09:44:23;;;;;;;52.10;21.98;;;;;;;-0.73;100.00;103099.66;5073214;28;20056;-50
2023/01/21 09:46:56;;;;;;;51.03;21.60;;;;;;;-0.68;100.00;103119.56;5073699;28;20040;-52
2023/01/21 09:49:28;;;;;;;53.10;22.95;;;;;;;-0.66;100.00;103122.19;5073286;28;20132;-58
2023/01/21 09:52:08;;;;;;;48.55;22.65;;;;;;;-0.62;100.00;103131.72;5071311;28;20044;-58
2023/01/21 09:54:39;;;;;;;49.05;21.67;;;;;;;-0.59;100.00;103131.78;5070148;28;20048;-59
2023/01/21 09:57:24;;;;;;;53.75;22.63;;;;;;;-0.59;100.00;103130.91;5072057;28;20047;-49
2023/01/21 10:00:08;;;;;;;51.55;21.85;;;;;;;-0.59;100.00;103136.94;5071336;28;20491;-49
2023/01/21 10:02:45;;;;;;;45.33;20.20;;;;;;;-0.50;100.00;103149.19;5072928;28;20119;-52
2023/01/21 10:05:49;;;;;;;48.20;21.85;;;;;;;-0.51;100.00;103145.72;5072848;28;20750;-52
2023/01/21 10:08:26;;;;;;;50.20;21.52;;;;;;;-0.45;100.00;103141.50;5064813;28;20549;-49
2023/01/21 10:11:06;;;;;;;47.08;21.92;;;;;;;-0.42;100.00;103145.03;5068951;28;20045;-49
2023/01/21 10:13:48;;;;;;;48.67;21.30;;;;;;;-0.31;100.00;103133.97;5070689;28;20139;-48
2023/01/21 10:16:26;;;;;;;45.75;20.17;;;;;;;-0.26;100.00;103129.75;5068431;28;20585;-49
2023/01/21 10:18:57;;;;;;;44.00;20.05;;;;;;;-0.18;100.00;103138.50;5069254;28;20052;-49
2023/01/21 10:21:33;;;;;;;49.05;22.85;;;;;;;-0.15;100.00;103130.81;5072795;28;20048;-49
2023/01/21 10:24:06;;;;;;;50.33;21.27;;;;;;;-0.07;100.00;103133.50;5072051;28;20057;-49
2023/01/21 10:26:36;;;;;;;44.88;20.92;;;;;;;-0.08;100.00;103143.00;5071687;28;20564;-52
2023/01/21 10:29:05;;;;;;;42.67;19.60;;;;;;;0.02;100.00;103145.75;5068900;28;20098;-51
2023/01/21 10:31:40;;;;;;;44.60;20.48;;;;;;;0.06;100.00;103139.75;5070166;28;20044;-50
2023/01/21 10:34:14;;;;;;;49.60;21.35;;;;;;;0.12;100.00;103134.66;5072484;28;20040;-50
2023/01/21 10:36:55;;;;;;;42.92;18.60;;;;;;;0.31;100.00;103141.00;5072459;28;20498;-49
2023/01/21 10:39:34;;;;;;;42.17;19.40;;;;;;;0.39;100.00;103136.78;5071833;28;20049;-50
2023/01/21 10:42:24;;;;;;;41.92;20.20;;;;;;;0.43;100.00;103141.16;5067368;28;20057;-51
2023/01/21 10:44:59;;;;;;;46.78;20.42;;;;;;;0.45;100.00;103139.47;5070924;28;20542;-52
2023/01/21 10:47:37;;;;;;;44.50;19.63;;;;;;;0.53;100.00;103139.56;5072216;28;20044;-49
2023/01/21 10:50:28;;;;;;;41.53;18.85;;;;;;;0.62;100.00;103139.69;5072336;28;20530;-49
2023/01/21 10:53:02;;;;;;;46.25;19.55;;;;;;;0.64;100.00;103145.78;5070804;28;20072;-49
2023/01/21 10:55:40;;;;;;;40.35;19.17;;;;;;;0.68;100.00;103144.06;5072247;28;20371;-50
2023/01/21 10:58:24;;;;;;;39.33;17.80;;;;;;;0.69;100.00;103145.81;5072132;28;20041;-50
2023/01/21 11:00:55;;;;;;;37.97;17.95;;;;;;;0.84;100.00;103140.81;5072095;28;20067;-52
2023/01/21 11:03:31;;;;;;;39.55;18.17;;;;;;;0.84;100.00;103146.00;5072513;28;20079;-52
2023/01/21 11:06:01;;;;;;;38.55;19.77;;;;;;;0.89;100.00;103143.50;5071974;28;20055;-50
2023/01/21 11:08:31;;;;;;;41.55;18.95;;;;;;;0.97;100.00;103141.84;5068091;28;20076;-52
2023/01/21 11:11:00;;;;;;;41.58;18.33;;;;;;;1.12;100.00;103143.75;5069026;28;20070;-50
2023/01/21 11:13:30;;;;;;;37.25;18.48;;;;;;;1.17;100.00;103136.91;5076328;28;20056;-53
2023/01/21 11:15:59;;;;;;;39.38;19.15;;;;;;;1.03;100.00;103140.19;5076294;28;20182;-52
2023/01/21 11:18:31;;;;;;;36.10;18.30;;;;;;;1.05;100.00;103139.38;5072645;28;20119;-49
2023/01/21 11:21:02;;;;;;;39.03;17.67;;;;;;;1.06;100.00;103137.63;5070681;28;20059;-50
2023/01/21 11:23:33;;;;;;;35.47;16.23;;;;;;;1.16;100.00;103129.13;5074952;28;20044;-52